Terminal Aerodrome Forecast
Issued by NWS

Home | Current Version | Previous Version | Text Only | Print | Product List | Glossary On
Versions: 1 2 3 4 5 6 7 8 9 10 11 12 13 14 15 16 17 18 19 20 21 22 23 24 25 26 27 28 29 30 31 32
000
FTUS44 KHGX 172333
TAFIAH
TAF
KIAH 172333Z 1800/1906 18009KT P6SM SCT040
     FM180200 18009KT P6SM SCT025
     FM180900 20008KT P6SM BKN020
     FM181600 24012G18KT P6SM SCT030
     FM182000 32015G22KT P6SM SCT050
     FM190200 35015G22KT P6SM SCT250=

USA.gov is the U.S. government's official web portal to all federal, state and local government web resources and services.